Time;durP1;ratioP1;P1;durP2;ratioP2;P2;SDS_P1;SDS_P2;PMS_P1;PMS_P2;Temp;Humidity;BMP_temperature;BMP_pressure;BME280_temperature;BME280_humidity;BME280_pressure;Samples;Min_cycle;Max_cycle;Signal;HPM_P1;HPM_P2
2022/10/18 00:00:17;;;;;;;0.27;0.27;;;;;;;13.04;41.05;96645.22;5108846;28;20472;-64
2022/10/18 00:02:44;;;;;;;0.53;0.47;;;;;;;12.90;42.06;96643.00;5093890;28;20778;-65
2022/10/18 00:05:11;;;;;;;0.33;0.33;;;;;;;13.00;41.14;96643.22;5099617;28;20440;-64
2022/10/18 00:07:38;;;;;;;0.30;0.30;;;;;;;12.61;42.01;96644.66;5099299;28;20482;-68
2022/10/18 00:10:05;;;;;;;1.90;1.27;;;;;;;11.96;43.68;96640.28;5099969;28;21008;-66
2022/10/18 00:12:34;;;;;;;0.00;0.00;;;;;;;12.45;42.75;96640.03;5108371;28;20447;-65
2022/10/18 00:15:06;;;;;;;0.70;0.70;;;;;;;12.04;43.85;96621.63;5099763;28;20503;-64
2022/10/18 00:17:34;;;;;;;0.63;0.63;;;;;;;11.97;43.97;96626.16;5102354;28;20955;-63
2022/10/18 00:20:01;;;;;;;0.63;0.63;;;;;;;12.43;43.19;96621.03;5089207;28;20525;-68
2022/10/18 00:22:28;;;;;;;1.67;0.60;;;;;;;12.49;43.08;96630.69;5091419;28;20496;-64
2022/10/18 00:24:56;;;;;;;0.43;0.43;;;;;;;11.32;45.50;96619.78;5100287;28;20437;-64
2022/10/18 00:27:24;;;;;;;0.80;0.80;;;;;;;10.77;46.94;96623.31;5112984;28;20528;-67
2022/10/18 00:29:52;;;;;;;0.63;0.63;;;;;;;11.11;46.75;96617.59;5098433;28;20438;-62
2022/10/18 00:32:20;;;;;;;0.17;0.17;;;;;;;11.95;44.61;96617.69;5105062;28;20539;-61
2022/10/18 00:34:47;;;;;;;0.10;0.10;;;;;;;12.00;44.28;96615.19;5113283;28;20444;-65
2022/10/18 00:37:14;;;;;;;2.90;2.20;;;;;;;12.34;43.21;96604.00;5102278;28;20911;-63
2022/10/18 00:39:40;;;;;;;0.83;0.83;;;;;;;12.59;42.78;96604.63;5109573;28;20963;-68
2022/10/18 00:42:17;;;;;;;5.60;1.77;;;;;;;12.52;43.40;96605.78;5098438;28;20506;-69
2022/10/18 00:44:44;;;;;;;0.40;0.40;;;;;;;12.59;43.22;96598.56;5100346;28;20997;-65
2022/10/18 00:47:15;;;;;;;3.00;1.90;;;;;;;12.42;43.69;96602.88;5098276;28;20441;-66
2022/10/18 00:49:46;;;;;;;0.40;0.40;;;;;;;12.46;43.02;96607.47;5099188;28;20463;-64
2022/10/18 00:52:50;;;;;;;0.93;0.87;;;;;;;12.42;43.36;96601.06;5098158;28;20469;-67
2022/10/18 00:55:17;;;;;;;0.47;0.47;;;;;;;12.10;44.20;96599.69;5074884;28;20939;-65
2022/10/18 00:57:44;;;;;;;1.40;0.80;;;;;;;12.26;43.77;96593.81;5092523;28;20456;-64
2022/10/18 01:00:12;;;;;;;0.53;0.53;;;;;;;12.29;43.70;96601.25;5106241;28;20446;-67
2022/10/18 01:02:41;;;;;;;0.17;0.17;;;;;;;12.27;43.83;96590.16;5112496;28;20519;-64
2022/10/18 01:05:14;;;;;;;0.80;0.77;;;;;;;12.44;43.24;96595.56;5112843;28;20478;-63
2022/10/18 01:08:25;;;;;;;0.50;0.50;;;;;;;11.50;45.50;96598.78;5106779;28;20433;-69
2022/10/18 01:11:17;;;;;;;0.33;0.33;;;;;;;12.03;44.34;96594.53;5080651;28;20509;-64
2022/10/18 01:14:02;;;;;;;0.10;0.10;;;;;;;11.98;44.24;96586.50;5091780;28;20441;-67
2022/10/18 01:16:35;;;;;;;0.47;0.47;;;;;;;12.15;44.21;96582.22;5099576;28;20515;-62
2022/10/18 01:19:24;;;;;;;0.20;0.20;;;;;;;12.08;44.13;96586.78;5112055;28;20440;-70
2022/10/18 01:22:08;;;;;;;0.20;0.20;;;;;;;11.65;45.29;96590.56;5101561;28;20966;-66
2022/10/18 01:25:05;;;;;;;1.27;1.17;;;;;;;11.27;46.14;96582.09;5110383;28;20448;-67
2022/10/18 01:28:12;;;;;;;0.20;0.20;;;;;;;11.10;46.68;96580.06;5096397;28;20449;-65
2022/10/18 01:30:47;;;;;;;0.27;0.27;;;;;;;11.59;45.28;96580.91;5104399;28;20966;-67
2022/10/18 01:33:47;;;;;;;0.20;0.20;;;;;;;11.72;45.11;96580.78;5096098;28;20451;-67
2022/10/18 01:36:22;;;;;;;2.03;1.30;;;;;;;11.92;44.66;96581.34;5089943;28;20501;-64
2022/10/18 01:38:52;;;;;;;0.10;0.10;;;;;;;11.91;44.33;96579.75;5101238;28;20438;-68
2022/10/18 01:41:22;;;;;;;0.33;0.33;;;;;;;11.57;45.98;96577.72;5095522;28;20532;-67
2022/10/18 01:43:54;;;;;;;0.47;0.47;;;;;;;11.65;45.22;96585.31;5105119;28;20844;-66
2022/10/18 01:46:24;;;;;;;1.63;1.10;;;;;;;11.83;44.51;96569.53;5105959;28;21006;-65
2022/10/18 01:48:53;;;;;;;0.77;0.43;;;;;;;11.63;45.13;96572.38;5111567;28;20432;-65
2022/10/18 01:51:26;;;;;;;1.70;1.60;;;;;;;11.63;45.48;96568.94;5091367;28;20441;-64
2022/10/18 01:53:54;;;;;;;0.20;0.20;;;;;;;11.76;44.58;96571.44;5109261;28;20438;-63
2022/10/18 01:56:42;;;;;;;1.80;1.17;;;;;;;11.76;44.52;96569.63;5101498;28;20567;-63
2022/10/18 01:59:34;;;;;;;0.67;0.47;;;;;;;11.85;44.26;96573.56;5088982;28;20545;-69
2022/10/18 02:02:00;;;;;;;1.37;1.27;;;;;;;11.97;44.39;96563.09;5091311;28;20445;-63
2022/10/18 02:04:27;;;;;;;1.50;1.40;;;;;;;11.78;44.75;96564.97;5091163;28;20437;-64
2022/10/18 02:07:03;;;;;;;1.47;1.17;;;;;;;11.61;44.79;96563.13;5103963;28;20447;-63
2022/10/18 02:09:41;;;;;;;0.30;0.30;;;;;;;11.20;45.57;96554.09;5097372;28;20900;-65
2022/10/18 02:12:13;;;;;;;0.87;0.73;;;;;;;11.38;45.71;96568.25;5111595;28;20829;-67
2022/10/18 02:14:42;;;;;;;0.53;0.53;;;;;;;10.90;46.28;96555.84;5097525;28;20441;-68
2022/10/18 02:17:11;;;;;;;0.07;0.07;;;;;;;10.98;46.21;96562.63;5111578;28;20468;-67
2022/10/18 02:19:45;;;;;;;0.30;0.30;;;;;;;11.20;45.70;96567.22;5092308;28;20452;-62
2022/10/18 02:22:13;;;;;;;1.23;1.13;;;;;;;11.15;45.72;96564.44;5093951;28;20452;-64
2022/10/18 02:24:47;;;;;;;27.87;2.90;;;;;;;11.55;45.09;96551.66;5105050;28;20543;-66
2022/10/18 02:27:14;;;;;;;0.63;0.63;;;;;;;11.63;44.73;96550.56;5090600;28;20995;-64
2022/10/18 02:29:42;;;;;;;1.33;1.13;;;;;;;11.68;44.51;96546.28;5094635;28;20435;-63
2022/10/18 02:32:33;;;;;;;3.30;1.67;;;;;;;11.41;45.18;96552.88;5110126;28;20550;-69
2022/10/18 02:35:14;;;;;;;0.50;0.43;;;;;;;11.36;44.76;96544.03;5097207;28;20796;-65
2022/10/18 02:37:42;;;;;;;0.10;0.10;;;;;;;11.40;45.07;96545.22;5096402;28;20481;-67
2022/10/18 02:40:10;;;;;;;0.37;0.37;;;;;;;11.34;45.39;96556.59;5109190;28;20438;-68
2022/10/18 02:42:40;;;;;;;0.30;0.30;;;;;;;11.23;45.27;96558.94;5097131;28;20429;-67
2022/10/18 02:45:07;;;;;;;0.70;0.70;;;;;;;11.46;44.65;96553.00;5109167;28;20499;-67
2022/10/18 02:47:34;;;;;;;0.00;0.00;;;;;;;11.40;44.87;96547.84;5096226;28;20432;-70
2022/10/18 02:50:00;;;;;;;0.00;0.00;;;;;;;11.59;44.22;96555.47;5110312;28;20432;-66
2022/10/18 02:52:27;;;;;;;2.30;1.90;;;;;;;11.37;44.65;96566.66;5090217;28;20445;-66
2022/10/18 02:54:54;;;;;;;1.33;1.23;;;;;;;11.48;44.42;96565.94;5102175;28;20447;-65
2022/10/18 02:57:21;;;;;;;0.83;0.80;;;;;;;11.29;44.83;96569.56;5106301;28;20898;-68
2022/10/18 02:59:47;;;;;;;3.50;2.57;;;;;;;11.11;45.07;96565.91;5100392;28;20446;-66
2022/10/18 03:02:14;;;;;;;2.20;1.80;;;;;;;10.93;45.67;96565.88;5096212;28;20818;-66
2022/10/18 03:04:41;;;;;;;0.23;0.23;;;;;;;10.66;46.32;96559.28;5101545;28;20487;-63
2022/10/18 03:07:09;;;;;;;0.73;0.60;;;;;;;10.79;46.02;96558.34;5089324;28;20477;-66
2022/10/18 03:09:35;;;;;;;0.10;0.10;;;;;;;10.79;46.25;96567.03;5096484;28;20444;-65
2022/10/18 03:12:02;;;;;;;0.20;0.20;;;;;;;10.49;47.49;96566.06;5110224;28;20443;-68
2022/10/18 03:14:29;;;;;;;0.97;0.90;;;;;;;10.89;46.29;96562.09;5104452;28;20845;-63
2022/10/18 03:16:56;;;;;;;1.73;1.07;;;;;;;10.88;46.24;96560.50;5101044;28;20566;-68
2022/10/18 03:19:23;;;;;;;1.23;0.70;;;;;;;11.04;45.68;96562.56;5091744;28;20548;-62
2022/10/18 03:21:50;;;;;;;0.40;0.40;;;;;;;10.80;45.63;96565.22;5089654;28;20449;-67
2022/10/18 03:24:17;;;;;;;0.57;0.53;;;;;;;11.05;45.62;96564.16;5103597;28;20527;-72
2022/10/18 03:26:43;;;;;;;0.80;0.80;;;;;;;10.92;45.43;96547.75;5097461;28;20513;-61
2022/10/18 03:29:10;;;;;;;0.93;0.90;;;;;;;10.80;45.96;96555.53;5095527;28;20464;-68
2022/10/18 03:31:38;;;;;;;0.33;0.33;;;;;;;10.93;45.88;96544.91;5098044;28;20472;-66
2022/10/18 03:34:04;;;;;;;0.87;0.37;;;;;;;11.04;45.49;96561.75;5091309;28;20532;-65
2022/10/18 03:36:32;;;;;;;0.83;0.77;;;;;;;10.94;45.32;96557.03;5094166;28;20564;-67
2022/10/18 03:39:00;;;;;;;0.20;0.20;;;;;;;10.68;46.07;96561.69;5098852;28;20476;-65
2022/10/18 03:41:27;;;;;;;0.50;0.50;;;;;;;10.31;47.38;96566.00;5089168;28;20473;-65
2022/10/18 03:43:53;;;;;;;0.50;0.50;;;;;;;10.72;46.00;96563.69;5089473;28;20449;-64
2022/10/18 03:46:20;;;;;;;0.50;0.50;;;;;;;10.59;47.52;96574.28;5102437;28;20438;-65
2022/10/18 03:48:47;;;;;;;1.97;1.67;;;;;;;10.41;47.65;96571.59;5089283;28;20861;-65
2022/10/18 03:51:14;;;;;;;0.20;0.20;;;;;;;10.88;46.41;96576.22;5098674;28;20464;-64
2022/10/18 03:53:40;;;;;;;0.93;0.93;;;;;;;10.80;46.11;96570.47;5105132;28;20444;-66
2022/10/18 03:56:07;;;;;;;0.83;0.83;;;;;;;10.62;46.08;96578.28;5112110;28;20528;-67
2022/10/18 03:58:35;;;;;;;0.00;0.00;;;;;;;10.56;45.92;96572.09;5097602;28;20525;-65
2022/10/18 04:01:01;;;;;;;1.53;1.40;;;;;;;10.78;44.96;96562.81;5090352;28;20460;-66
2022/10/18 04:03:28;;;;;;;3.13;2.33;;;;;;;10.40;46.37;96575.22;5094393;28;20446;-68
2022/10/18 04:05:56;;;;;;;3.80;3.47;;;;;;;10.35;46.48;96577.69;5100953;28;20795;-70
2022/10/18 04:08:22;;;;;;;0.60;0.60;;;;;;;10.48;46.53;96576.78;5089029;28;20458;-66
2022/10/18 04:10:51;;;;;;;0.83;0.83;;;;;;;10.47;45.91;96575.19;5094942;28;20536;-66
2022/10/18 04:13:18;;;;;;;2.40;2.20;;;;;;;10.44;46.30;96571.16;5109441;28;20436;-66
2022/10/18 04:15:44;;;;;;;7.23;2.20;;;;;;;10.50;46.42;96580.81;5104252;28;20515;-67
2022/10/18 04:18:11;;;;;;;3.47;1.70;;;;;;;10.58;45.50;96571.88;5088527;28;20818;-65
2022/10/18 04:20:38;;;;;;;1.17;0.70;;;;;;;10.88;45.12;96578.84;5102797;28;20445;-68
2022/10/18 04:23:05;;;;;;;1.60;1.50;;;;;;;10.77;45.54;96574.31;5092176;28;20531;-66
2022/10/18 04:25:32;;;;;;;1.40;1.30;;;;;;;10.62;45.84;96573.84;5107776;28;20194;-65
2022/10/18 04:27:59;;;;;;;3.10;1.60;;;;;;;10.30;46.04;96553.13;5096408;28;20505;-68
2022/10/18 04:30:26;;;;;;;0.17;0.17;;;;;;;10.61;45.44;96572.25;5097360;28;20445;-67
2022/10/18 04:32:53;;;;;;;0.50;0.50;;;;;;;10.80;45.07;96579.13;5105483;28;20877;-65
2022/10/18 04:35:23;;;;;;;0.63;0.63;;;;;;;10.20;45.72;96577.16;5108599;28;20810;-66
2022/10/18 04:37:50;;;;;;;0.27;0.27;;;;;;;10.48;45.93;96577.59;5101041;28;20539;-66
2022/10/18 04:40:18;;;;;;;3.07;0.67;;;;;;;10.35;46.06;96559.34;5100841;28;20460;-66
2022/10/18 04:42:45;;;;;;;1.27;1.17;;;;;;;10.20;45.98;96569.31;5108031;28;20465;-66
2022/10/18 04:45:12;;;;;;;1.13;0.83;;;;;;;10.23;46.05;96563.66;5108282;28;20476;-67
2022/10/18 04:47:39;;;;;;;5.50;2.13;;;;;;;10.34;45.51;96565.59;5092716;28;20912;-67
2022/10/18 04:50:06;;;;;;;0.70;0.60;;;;;;;10.27;45.80;96564.03;5101503;28;20436;-66
2022/10/18 04:52:33;;;;;;;0.17;0.17;;;;;;;9.93;46.91;96557.38;5102184;28;20456;-68
2022/10/18 04:55:00;;;;;;;0.77;0.77;;;;;;;10.09;46.89;96562.16;5093251;28;20447;-62
2022/10/18 04:57:27;;;;;;;2.93;2.73;;;;;;;10.12;46.19;96552.06;5106644;28;20933;-65
2022/10/18 04:59:54;;;;;;;3.63;2.73;;;;;;;10.20;46.21;96564.06;5097201;28;20441;-68
2022/10/18 05:02:20;;;;;;;1.48;1.40;;;;;;;10.25;46.80;96556.41;5091607;28;20531;-69
2022/10/18 05:04:47;;;;;;;1.77;1.63;;;;;;;10.20;46.68;96556.22;5099655;28;20642;-71
2022/10/18 05:07:14;;;;;;;3.37;3.07;;;;;;;10.36;45.75;96537.38;5090965;28;20999;-75
2022/10/18 05:09:41;;;;;;;0.40;0.40;;;;;;;10.35;45.93;96550.66;5105042;28;20943;-73
2022/10/18 05:12:08;;;;;;;4.43;4.13;;;;;;;10.52;48.07;96547.31;5106474;28;20440;-64
2022/10/18 05:14:35;;;;;;;12.40;4.83;;;;;;;10.82;47.23;96548.25;5097913;28;20432;-65
2022/10/18 05:17:01;;;;;;;3.10;2.88;;;;;;;10.61;48.01;96547.84;5100004;28;20468;-66
2022/10/18 05:19:28;;;;;;;0.17;0.17;;;;;;;10.25;48.35;96551.16;5110375;28;20709;-66
2022/10/18 05:21:56;;;;;;;0.93;0.93;;;;;;;10.04;49.34;96559.31;5112454;28;20520;-69
2022/10/18 05:24:23;;;;;;;1.67;1.57;;;;;;;9.58;50.53;96561.41;5092944;28;20784;-64
2022/10/18 05:26:53;;;;;;;1.23;1.20;;;;;;;9.18;53.41;96569.38;5101434;28;20475;-65
2022/10/18 05:29:20;;;;;;;4.13;2.43;;;;;;;9.70;50.91;96557.09;5099388;28;20448;-70
2022/10/18 05:31:48;;;;;;;0.53;0.53;;;;;;;9.44;51.31;96552.78;5098297;28;20491;-71
2022/10/18 05:34:15;;;;;;;0.60;0.60;;;;;;;9.68;51.27;96553.91;5097491;28;20838;-71
2022/10/18 05:36:42;;;;;;;1.73;1.27;;;;;;;10.53;48.16;96564.63;5110428;28;21018;-72
2022/10/18 05:39:09;;;;;;;0.47;0.47;;;;;;;10.52;47.15;96564.84;5110574;28;20443;-70
2022/10/18 05:41:37;;;;;;;0.40;0.40;;;;;;;10.76;46.35;96561.44;5101058;28;21337;-70
2022/10/18 05:44:05;;;;;;;2.10;1.43;;;;;;;10.85;45.71;96553.06;5104125;28;20611;-71
2022/10/18 05:46:32;;;;;;;2.10;1.80;;;;;;;10.75;46.28;96550.13;5091347;28;20446;-70
2022/10/18 05:48:59;;;;;;;1.80;1.70;;;;;;;11.12;45.49;96564.91;5106668;28;20424;-70
2022/10/18 05:51:26;;;;;;;2.67;2.47;;;;;;;10.90;45.60;96560.28;5101154;28;20445;-71
2022/10/18 05:53:53;;;;;;;0.73;0.73;;;;;;;10.89;45.63;96559.47;5111138;28;21182;-70
2022/10/18 05:56:20;;;;;;;2.37;0.83;;;;;;;10.80;45.36;96566.00;5101714;28;20445;-71
2022/10/18 05:58:51;;;;;;;1.47;1.37;;;;;;;10.69;45.93;96564.09;5091570;28;20503;-70
2022/10/18 06:01:18;;;;;;;2.63;2.27;;;;;;;10.37;46.33;96578.28;5091069;28;20536;-71
2022/10/18 06:03:45;;;;;;;2.40;2.20;;;;;;;10.16;46.98;96578.63;5106603;28;20547;-70
2022/10/18 06:06:13;;;;;;;0.97;0.93;;;;;;;10.02;47.67;96563.97;5119051;28;20479;-69
2022/10/18 06:08:41;;;;;;;0.77;0.77;;;;;;;10.85;45.92;96568.81;5111538;28;20818;-72
2022/10/18 06:11:16;;;;;;;1.93;1.17;;;;;;;10.50;46.71;96570.31;5095383;28;20443;-72
2022/10/18 06:13:45;;;;;;;0.67;0.67;;;;;;;10.49;47.37;96560.06;5111572;28;20492;-69
2022/10/18 06:16:15;;;;;;;1.30;0.87;;;;;;;10.70;46.70;96570.94;5111149;28;20804;-70
2022/10/18 06:18:45;;;;;;;0.57;0.57;;;;;;;11.29;45.41;96572.19;5110668;28;20476;-70
2022/10/18 06:21:12;;;;;;;4.13;1.40;;;;;;;10.98;45.62;96568.66;5097386;28;20444;-71
2022/10/18 06:23:41;;;;;;;1.27;1.17;;;;;;;11.22;45.52;96562.56;5100258;28;20452;-71
2022/10/18 06:26:10;;;;;;;1.57;1.40;;;;;;;11.00;45.85;96564.00;5105270;28;20449;-70
2022/10/18 06:28:38;;;;;;;1.63;1.53;;;;;;;10.52;47.20;96562.22;5100839;28;20489;-69
2022/10/18 06:31:05;;;;;;;0.73;0.53;;;;;;;11.71;45.20;96566.06;5094910;28;20481;-69
2022/10/18 06:33:34;;;;;;;2.40;1.30;;;;;;;11.46;45.49;96560.09;5099292;28;20436;-70
2022/10/18 06:36:02;;;;;;;1.60;1.50;;;;;;;12.16;44.44;96562.81;5096600;28;20441;-70
2022/10/18 06:38:29;;;;;;;1.57;1.37;;;;;;;11.73;45.15;96566.66;5111477;28;20479;-68
2022/10/18 06:40:57;;;;;;;9.90;3.27;;;;;;;11.51;45.68;96553.16;5106721;28;20816;-70
2022/10/18 06:43:24;;;;;;;0.33;0.33;;;;;;;11.04;46.49;96557.31;5101788;28;20454;-70
2022/10/18 06:45:52;;;;;;;2.23;1.17;;;;;;;11.17;46.79;96557.16;5108109;28;20972;-69
2022/10/18 06:48:19;;;;;;;1.33;1.17;;;;;;;11.61;46.44;96565.75;5099965;28;20472;-69
2022/10/18 06:50:56;;;;;;;0.73;0.73;;;;;;;12.45;43.51;96549.81;5104309;28;20807;-69
2022/10/18 06:53:25;;;;;;;4.33;1.73;;;;;;;11.60;44.57;96545.78;5104131;28;20934;-69
2022/10/18 06:55:52;;;;;;;1.97;1.00;;;;;;;11.91;44.97;96558.72;5096477;28;20482;-69
2022/10/18 06:58:19;;;;;;;1.17;0.77;;;;;;;12.45;44.02;96548.00;5110720;28;20483;-69
2022/10/18 07:00:46;;;;;;;2.83;2.10;;;;;;;12.15;43.33;96545.44;5096154;28;20529;-69
2022/10/18 07:03:14;;;;;;;0.63;0.63;;;;;;;12.82;43.59;96545.97;5099842;28;20477;-69
2022/10/18 07:05:40;;;;;;;0.30;0.30;;;;;;;12.34;44.06;96548.78;5107188;28;20452;-70
2022/10/18 07:08:07;;;;;;;0.50;0.50;;;;;;;13.40;42.06;96538.84;5109664;28;20528;-69
2022/10/18 07:10:34;;;;;;;1.33;1.20;;;;;;;13.26;41.80;96541.97;5110261;28;20468;-68
2022/10/18 07:13:01;;;;;;;6.13;2.50;;;;;;;13.10;42.63;96543.50;5103312;28;21298;-69
2022/10/18 07:15:48;;;;;;;0.43;0.43;;;;;;;13.03;42.43;96543.59;5106199;28;20432;-69
2022/10/18 07:18:15;;;;;;;1.13;0.50;;;;;;;13.04;42.62;96542.59;5110451;28;20564;-70
2022/10/18 07:20:41;;;;;;;0.63;0.63;;;;;;;13.37;42.38;96541.97;5095903;28;20906;-70
2022/10/18 07:23:10;;;;;;;0.97;0.97;;;;;;;13.32;42.44;96543.69;5096203;28;20946;-70
2022/10/18 07:25:37;;;;;;;0.47;0.47;;;;;;;12.64;44.08;96544.28;5110366;28;20452;-70
2022/10/18 07:28:04;;;;;;;0.50;0.50;;;;;;;13.02;43.60;96535.91;5090669;28;20980;-69
2022/10/18 07:30:31;;;;;;;0.67;0.67;;;;;;;12.94;43.57;96544.94;5092301;28;20534;-70
2022/10/18 07:32:57;;;;;;;0.70;0.70;;;;;;;12.69;43.69;96525.16;5103932;28;20881;-70
2022/10/18 07:35:24;;;;;;;0.30;0.30;;;;;;;13.64;42.12;96523.78;5099691;28;20488;-70
2022/10/18 07:37:51;;;;;;;5.13;2.90;;;;;;;13.36;43.14;96521.13;5106857;28;20487;-69
2022/10/18 07:40:18;;;;;;;0.20;0.20;;;;;;;13.08;43.74;96525.28;5097784;28;20471;-70
2022/10/18 07:42:45;;;;;;;0.87;0.87;;;;;;;13.32;42.71;96514.72;5090452;28;20433;-70
2022/10/18 07:45:12;;;;;;;1.70;1.60;;;;;;;13.66;42.42;96519.06;5088502;28;20480;-69
2022/10/18 07:47:39;;;;;;;1.33;0.83;;;;;;;13.77;42.03;96519.03;5104064;28;20441;-69
2022/10/18 07:50:08;;;;;;;0.30;0.30;;;;;;;13.58;43.25;96520.25;5099581;28;20838;-70
2022/10/18 07:52:35;;;;;;;0.50;0.50;;;;;;;14.05;42.23;96516.38;5096423;28;20464;-69
2022/10/18 07:55:02;;;;;;;0.77;0.77;;;;;;;14.59;40.56;96491.19;5110255;28;20489;-70
2022/10/18 07:57:28;;;;;;;0.57;0.57;;;;;;;14.68;39.85;96504.75;5090398;28;20471;-70
2022/10/18 07:59:56;;;;;;;0.43;0.43;;;;;;;14.83;40.95;96497.06;5101441;28;20786;-69
2022/10/18 08:02:23;;;;;;;1.20;1.10;;;;;;;14.91;40.26;96501.91;5105973;28;20441;-70
2022/10/18 08:04:50;;;;;;;1.50;1.37;;;;;;;14.88;40.31;96497.94;5099807;28;20880;-70
2022/10/18 08:07:17;;;;;;;0.17;0.17;;;;;;;15.72;38.69;96496.63;5107785;28;20440;-70
2022/10/18 08:09:44;;;;;;;2.97;1.70;;;;;;;14.96;40.38;96497.50;5097768;28;20447;-69
2022/10/18 08:12:11;;;;;;;1.77;1.00;;;;;;;15.85;38.91;96483.03;5095097;28;20441;-69
2022/10/18 08:14:38;;;;;;;0.70;0.57;;;;;;;16.33;38.29;96470.75;5102983;28;20978;-69
2022/10/18 08:17:04;;;;;;;0.90;0.83;;;;;;;17.23;37.12;96472.13;5101993;28;20439;-70
2022/10/18 08:19:31;;;;;;;0.60;0.60;;;;;;;17.01;36.78;96466.19;5094956;28;20475;-70
2022/10/18 08:21:58;;;;;;;0.80;0.80;;;;;;;16.23;38.35;96466.16;5109368;28;20443;-69
2022/10/18 08:24:25;;;;;;;0.73;0.43;;;;;;;17.59;36.95;96459.81;5109404;28;20455;-69
2022/10/18 08:26:52;;;;;;;0.50;0.50;;;;;;;16.58;37.36;96463.81;5109319;28;20511;-68
2022/10/18 08:29:19;;;;;;;0.53;0.53;;;;;;;17.20;36.25;96448.81;5109362;28;20937;-69
2022/10/18 08:31:52;;;;;;;0.83;0.83;;;;;;;16.67;36.85;96451.72;5109683;28;20595;-68
2022/10/18 08:34:19;;;;;;;1.97;1.40;;;;;;;16.47;38.32;96451.56;5108712;28;20798;-69
2022/10/18 08:36:46;;;;;;;2.00;1.40;;;;;;;16.78;37.38;96450.72;5095767;28;20464;-69
2022/10/18 08:39:13;;;;;;;6.67;2.00;;;;;;;17.22;37.38;96428.13;5109237;28;20487;-70
2022/10/18 08:42:05;;;;;;;3.10;1.07;;;;;;;17.83;36.12;96428.31;5098892;28;20467;-69
2022/10/18 08:44:43;;;;;;;1.40;1.30;;;;;;;18.04;35.87;96429.94;5092477;28;20558;-69
2022/10/18 08:47:40;;;;;;;1.33;1.23;;;;;;;17.67;36.07;96427.50;5092929;28;20448;-69
2022/10/18 08:50:21;;;;;;;2.77;1.63;;;;;;;17.79;36.55;96419.31;5104540;28;20962;-68
2022/10/18 08:53:26;;;;;;;1.10;1.10;;;;;;;17.60;36.79;96423.50;5101884;28;20448;-69
2022/10/18 08:56:20;;;;;;;1.37;1.07;;;;;;;18.19;36.08;96406.06;5099019;28;20443;-69
2022/10/18 08:58:47;;;;;;;1.30;1.20;;;;;;;18.30;35.40;96397.03;5111250;28;20847;-68
2022/10/18 09:01:37;;;;;;;0.53;0.53;;;;;;;18.42;35.92;96400.22;5091826;28;20440;-68
2022/10/18 09:04:13;;;;;;;1.50;1.40;;;;;;;19.17;34.54;96397.38;5110595;28;20451;-70
2022/10/18 09:06:59;;;;;;;0.20;0.20;;;;;;;18.40;35.35;96402.31;5113274;28;20977;-68
2022/10/18 09:09:45;;;;;;;0.40;0.40;;;;;;;18.70;35.25;96391.66;5107249;28;20437;-68
2022/10/18 09:12:14;;;;;;;1.17;1.13;;;;;;;19.10;35.03;96394.19;5093120;28;20440;-70
2022/10/18 09:14:48;;;;;;;2.17;1.70;;;;;;;19.13;35.38;96385.69;5105962;28;20510;-69
2022/10/18 09:17:42;;;;;;;6.30;1.50;;;;;;;19.85;33.76;96392.22;5092438;28;20483;-69
2022/10/18 09:20:30;;;;;;;0.50;0.50;;;;;;;19.90;34.18;96384.19;5092776;28;20464;-69
2022/10/18 09:23:17;;;;;;;0.30;0.30;;;;;;;19.60;34.39;96379.06;5111154;28;20935;-68
2022/10/18 09:25:59;;;;;;;0.80;0.80;;;;;;;20.34;33.11;96368.13;5098731;28;20447;-70
2022/10/18 09:28:29;;;;;;;1.33;1.23;;;;;;;21.26;32.15;96364.97;5100642;28;20436;-69
2022/10/18 09:31:09;;;;;;;0.40;0.40;;;;;;;21.05;32.02;96367.13;5097455;28;20961;-68
2022/10/18 09:33:49;;;;;;;1.63;1.53;;;;;;;21.03;32.08;96355.97;5100941;28;20448;-69
2022/10/18 09:36:27;;;;;;;0.33;0.30;;;;;;;20.95;32.72;96348.56;5098089;28;20488;-69
2022/10/18 09:39:01;;;;;;;1.07;0.90;;;;;;;20.95;32.71;96353.88;5112474;28;20491;-70
2022/10/18 09:41:36;;;;;;;0.40;0.40;;;;;;;21.52;32.39;96352.09;5105159;28;20464;-68
2022/10/18 09:44:24;;;;;;;0.20;0.20;;;;;;;21.92;32.04;96346.16;5093849;28;20578;-68
2022/10/18 09:47:01;;;;;;;0.70;0.70;;;;;;;21.94;32.13;96352.00;5100727;28;20490;-70
2022/10/18 09:49:35;;;;;;;2.83;1.10;;;;;;;22.15;31.20;96337.25;5106136;28;20285;-68
2022/10/18 09:52:07;;;;;;;0.37;0.37;;;;;;;22.82;29.87;96328.56;5094090;28;20464;-68
2022/10/18 09:54:57;;;;;;;0.30;0.30;;;;;;;22.98;29.87;96327.16;5110650;28;20178;-68
2022/10/18 09:57:39;;;;;;;0.63;0.63;;;;;;;22.59;28.11;96336.75;5097477;28;20289;-69
2022/10/18 10:00:15;;;;;;;2.47;1.00;;;;;;;22.88;27.75;96330.00;5112102;28;20198;-67
2022/10/18 10:02:42;;;;;;;0.27;0.27;;;;;;;22.88;27.59;96316.66;5098011;28;20243;-68
2022/10/18 10:05:12;;;;;;;0.20;0.20;;;;;;;22.88;27.85;96310.53;5099529;28;20203;-68
2022/10/18 10:07:46;;;;;;;0.20;0.20;;;;;;;22.82;27.57;96307.16;5109029;28;20199;-67
2022/10/18 10:10:23;;;;;;;0.17;0.17;;;;;;;23.52;27.45;96298.72;5091783;28;20207;-69
2022/10/18 10:13:15;;;;;;;0.20;0.20;;;;;;;23.33;26.89;96296.22;5096606;28;20194;-68
2022/10/18 10:15:52;;;;;;;2.37;0.93;;;;;;;22.80;27.22;96282.63;5110557;28;20199;-68
2022/10/18 10:18:25;;;;;;;0.43;0.43;;;;;;;23.03;27.78;96275.44;5100311;28;20221;-67
2022/10/18 10:20:54;;;;;;;0.73;0.73;;;;;;;23.19;27.14;96275.91;5097146;28;20467;-69
2022/10/18 10:23:25;;;;;;;0.20;0.20;;;;;;;23.89;25.75;96258.19;5111419;28;20190;-69
2022/10/18 10:25:55;;;;;;;1.00;1.00;;;;;;;23.91;26.05;96259.47;5110696;28;20186;-70
2022/10/18 10:28:27;;;;;;;0.67;0.67;;;;;;;23.68;25.79;96249.09;5091124;28;20195;-67
2022/10/18 10:31:13;;;;;;;1.90;0.57;;;;;;;23.49;26.80;96256.50;5105248;28;20202;-69
2022/10/18 10:33:46;;;;;;;0.80;0.80;;;;;;;23.62;24.58;96250.31;5100086;28;20198;-69
2022/10/18 10:36:18;;;;;;;0.33;0.33;;;;;;;24.07;25.19;96235.78;5109207;28;20209;-68
2022/10/18 10:39:01;;;;;;;0.40;0.40;;;;;;;23.74;24.71;96234.50;5089580;28;20249;-67
2022/10/18 10:41:29;;;;;;;0.27;0.27;;;;;;;23.80;24.72;96241.28;5099751;28;20191;-68
2022/10/18 10:44:04;;;;;;;0.20;0.20;;;;;;;23.62;22.84;96234.25;5106596;28;20292;-67
2022/10/18 10:46:35;;;;;;;0.43;0.43;;;;;;;24.11;23.99;96220.69;5111008;28;20259;-68
2022/10/18 10:49:03;;;;;;;0.30;0.30;;;;;;;24.32;23.52;96208.34;5110666;28;20616;-68
2022/10/18 10:51:57;;;;;;;0.30;0.30;;;;;;;23.79;24.20;96211.06;5097035;28;20195;-68
2022/10/18 10:54:37;;;;;;;0.33;0.33;;;;;;;24.10;24.26;96205.75;5110668;28;20198;-69
2022/10/18 10:57:12;;;;;;;0.30;0.30;;;;;;;23.67;23.35;96177.91;5109595;28;20202;-68
2022/10/18 10:59:45;;;;;;;0.30;0.30;;;;;;;24.08;24.30;96202.56;5111028;28;20565;-68
2022/10/18 11:02:18;;;;;;;0.97;0.80;;;;;;;24.23;23.04;96186.09;5110863;28;20561;-69
2022/10/18 11:04:47;;;;;;;2.30;1.10;;;;;;;24.12;23.55;96190.16;5110329;28;20206;-67
2022/10/18 11:07:34;;;;;;;3.73;1.57;;;;;;;24.48;23.24;96188.06;5093611;28;20191;-70
2022/10/18 11:10:10;;;;;;;0.50;0.50;;;;;;;24.50;22.69;96179.69;5101080;28;20213;-70
2022/10/18 11:12:52;;;;;;;0.57;0.57;;;;;;;24.75;22.58;96177.09;5096158;28;20838;-69
2022/10/18 11:15:39;;;;;;;1.27;0.77;;;;;;;24.79;21.98;96178.06;5110686;28;20229;-70
2022/10/18 11:18:22;;;;;;;0.50;0.50;;;;;;;24.77;20.78;96169.53;5096836;28;20198;-68
2022/10/18 11:21:01;;;;;;;0.10;0.10;;;;;;;24.89;21.07;96160.84;5094257;28;20286;-68
2022/10/18 11:23:31;;;;;;;0.40;0.40;;;;;;;25.06;20.88;96156.28;5089744;28;20650;-70
2022/10/18 11:26:10;;;;;;;0.63;0.63;;;;;;;25.08;20.33;96143.34;5104094;28;20194;-69
2022/10/18 11:29:02;;;;;;;0.10;0.10;;;;;;;24.70;19.54;96142.41;5100244;28;20199;-67
2022/10/18 11:32:06;;;;;;;0.10;0.10;;;;;;;25.33;20.17;96128.31;5089428;28;20638;-70
2022/10/18 11:35:15;;;;;;;1.70;1.50;;;;;;;24.95;20.19;96133.56;5092077;28;20199;-69
2022/10/18 11:38:09;;;;;;;0.20;0.20;;;;;;;25.57;18.79;96123.25;5110016;28;20230;-67
2022/10/18 11:40:47;;;;;;;0.53;0.50;;;;;;;25.53;17.98;96127.66;5108121;28;20604;-68
2022/10/18 11:43:49;;;;;;;0.37;0.37;;;;;;;25.31;17.00;96113.66;5099257;28;20194;-67
2022/10/18 11:46:37;;;;;;;1.37;0.63;;;;;;;26.46;18.08;96106.13;5084949;28;20582;-68
2022/10/18 11:49:55;;;;;;;0.87;0.87;;;;;;;25.93;17.80;96101.28;5095239;28;20638;-69
2022/10/18 11:52:40;;;;;;;0.10;0.10;;;;;;;26.55;18.26;96088.03;5067059;28;20204;-70
2022/10/18 11:55:31;;;;;;;1.60;0.93;;;;;;;27.02;18.26;96092.09;5053293;28;20937;-71
2022/10/18 11:58:28;;;;;;;0.47;0.47;;;;;;;26.68;17.84;96085.09;5094336;28;20186;-67